Time;durP1;ratioP1;P1;durP2;ratioP2;P2;SDS_P1;SDS_P2;PMS_P1;PMS_P2;Temp;Humidity;BMP_temperature;BMP_pressure;BME280_temperature;BME280_humidity;BME280_pressure;Samples;Min_cycle;Max_cycle;Signal;HPM_P1;HPM_P2
2023/12/27 00:01:41;;;;;;;;;8.00;8.00;;;;;11.69;100.00;101891.63;5042907;28;45334;-80
2023/12/27 00:04:07;;;;;;;;;11.00;10.00;;;;;11.75;100.00;101909.13;5061279;28;46259;-79
2023/12/27 00:06:32;;;;;;;;;12.00;8.67;;;;;11.30;100.00;101832.03;5061225;28;45329;-79
2023/12/27 00:08:58;;;;;;;;;11.00;9.67;;;;;11.62;100.00;101884.78;5061294;28;45436;-79
2023/12/27 00:11:24;;;;;;;;;14.00;10.33;;;;;11.66;100.00;101881.13;5043971;28;45345;-79
2023/12/27 00:13:49;;;;;;;;;11.00;10.00;;;;;11.62;100.00;101873.31;5023095;28;47807;-79
2023/12/27 00:16:14;;;;;;;;;6.67;6.00;;;;;11.44;100.00;101849.22;5022145;28;46583;-80
2023/12/27 00:18:40;;;;;;;;;12.33;9.33;;;;;11.52;100.00;101858.69;5033302;28;45329;-79
2023/12/27 00:21:05;;;;;;;;;11.00;10.00;;;;;11.58;100.00;101887.63;5036549;28;45404;-80
2023/12/27 00:23:30;;;;;;;;;12.00;9.00;;;;;11.56;100.00;101884.13;5042097;28;46357;-80
2023/12/27 00:25:56;;;;;;;;;9.33;9.33;;;;;11.64;100.00;101914.78;5040771;28;45412;-80
2023/12/27 00:28:22;;;;;;;;;8.67;8.33;;;;;11.64;100.00;101890.06;5040929;28;45455;-79
2023/12/27 00:30:51;;;;;;;;;12.33;9.00;;;;;11.37;100.00;101845.03;5040641;28;45475;-80
2023/12/27 00:33:17;;;;;;;;;12.00;10.00;;;;;11.52;100.00;101873.66;5040554;28;45814;-79
2023/12/27 00:35:42;;;;;;;;;9.33;8.67;;;;;11.26;100.00;101823.34;5040417;28;45458;-80
2023/12/27 00:38:08;;;;;;;;;13.00;7.33;;;;;11.27;100.00;101819.78;5040774;28;45392;-80
2023/12/27 00:40:33;;;;;;;;;8.33;8.00;;;;;11.24;100.00;101819.88;5040283;28;45506;-80
2023/12/27 00:42:58;;;;;;;;;11.00;6.67;;;;;11.53;100.00;101850.69;5033876;28;46226;-80
2023/12/27 00:45:24;;;;;;;;;12.00;8.33;;;;;11.23;100.00;101806.69;5025633;28;45477;-80
2023/12/27 00:47:49;;;;;;;;;10.00;9.00;;;;;11.56;100.00;101850.56;5041009;28;45292;-80
2023/12/27 00:50:15;;;;;;;;;10.00;10.00;;;;;11.29;100.00;101819.72;5041019;28;46237;-80
2023/12/27 00:52:40;;;;;;;;;12.00;10.00;;;;;11.64;100.00;101869.72;5023737;28;46976;-80
2023/12/27 00:55:06;;;;;;;;;10.00;6.67;;;;;11.46;100.00;101851.78;5049368;28;45428;-80
2023/12/27 00:57:31;;;;;;;;;5.33;4.67;;;;;11.21;100.00;101814.69;5044491;28;45332;-80
2023/12/27 00:59:56;;;;;;;;;8.33;5.67;;;;;11.05;100.00;101778.19;5060431;28;45568;-80
2023/12/27 01:02:22;;;;;;;;;11.33;10.00;;;;;11.61;100.00;101838.03;5037368;28;47121;-80
2023/12/27 01:04:47;;;;;;;;;9.33;9.33;;;;;11.23;100.00;101786.38;5039026;28;45726;-80
2023/12/27 01:07:13;;;;;;;;;9.67;6.67;;;;;11.28;100.00;101800.34;5040492;28;45251;-79
2023/12/27 01:09:38;;;;;;;;;10.33;10.33;;;;;11.32;100.00;101796.63;5040274;28;45377;-80
2023/12/27 01:12:04;;;;;;;;;10.67;9.33;;;;;11.37;100.00;101812.38;5054433;28;45566;-80
2023/12/27 01:14:29;;;;;;;;;11.00;9.00;;;;;11.55;100.00;101854.13;5060143;28;45397;-80
2023/12/27 01:16:55;;;;;;;;;13.00;10.33;;;;;11.21;100.00;101822.63;5040152;28;45280;-80
2023/12/27 01:19:20;;;;;;;;;13.33;9.00;;;;;11.49;100.00;101846.38;5040064;28;45405;-80
2023/12/27 01:21:45;;;;;;;;;10.00;10.00;;;;;11.63;100.00;101878.59;5040013;28;46337;-80
2023/12/27 01:24:11;;;;;;;;;8.67;8.67;;;;;11.23;100.00;101799.59;5040046;28;45210;-80
2023/12/27 01:26:36;;;;;;;;;11.00;10.00;;;;;11.30;100.00;101814.38;5040065;28;45229;-80
2023/12/27 01:29:02;;;;;;;;;9.67;9.00;;;;;11.34;100.00;101808.06;5034129;28;45392;-80
2023/12/27 01:31:27;;;;;;;;;8.67;6.67;;;;;11.20;100.00;101782.97;5042168;28;45446;-79
2023/12/27 01:33:52;;;;;;;;;9.67;8.00;;;;;11.20;100.00;101804.13;5039453;28;45432;-80
2023/12/27 01:36:19;;;;;;;;;11.00;9.00;;;;;11.48;100.00;101824.31;5039749;28;45419;-80
2023/12/27 01:38:44;;;;;;;;;10.00;9.67;;;;;11.41;100.00;101833.44;5022883;28;45566;-80
2023/12/27 01:41:10;;;;;;;;;8.00;8.00;;;;;11.52;100.00;101852.44;5039113;28;47611;-80
2023/12/27 01:43:35;;;;;;;;;8.00;8.00;;;;;11.52;100.00;101871.94;5023114;28;45349;-80
2023/12/27 01:46:02;;;;;;;;;7.33;7.33;;;;;11.02;100.00;101775.66;5024205;28;45469;-80
2023/12/27 01:48:28;;;;;;;;;8.00;8.00;;;;;11.34;100.00;101841.63;5057670;28;45512;-80
2023/12/27 01:50:54;;;;;;;;;4.00;4.00;;;;;11.45;100.00;101858.03;5054856;28;45398;-80
2023/12/27 01:53:22;;;;;;;;;9.00;8.00;;;;;11.05;100.00;101780.84;5053533;28;45379;-78
2023/12/27 01:55:48;;;;;;;;;12.00;8.67;;;;;10.96;100.00;101764.34;5041001;28;45518;-78
2023/12/27 01:58:15;;;;;;;;;11.33;9.67;;;;;11.16;100.00;101791.94;5039321;28;45325;-80
2023/12/27 02:00:44;;;;;;;;;10.00;8.00;;;;;11.46;100.00;101842.06;5039102;28;46351;-80
2023/12/27 02:03:11;;;;;;;;;7.67;7.33;;;;;11.13;100.00;101754.94;5039167;28;45304;-79
2023/12/27 02:05:36;;;;;;;;;8.33;8.33;;;;;11.18;100.00;101777.72;5039399;28;45259;-80
2023/12/27 02:08:03;;;;;;;;;10.33;6.33;;;;;11.02;100.00;101751.81;5021030;28;45315;-80
2023/12/27 02:10:29;;;;;;;;;7.33;7.33;;;;;11.11;100.00;101768.25;5039295;28;45521;-80
2023/12/27 02:12:54;;;;;;;;;9.00;8.00;;;;;11.35;100.00;101816.88;5039238;28;45363;-79
2023/12/27 02:15:20;;;;;;;;;9.33;5.67;;;;;11.39;100.00;101842.31;5038926;28;45450;-79
2023/12/27 02:17:46;;;;;;;;;9.33;8.00;;;;;11.20;100.00;101817.38;5039271;28;45617;-80
2023/12/27 02:20:12;;;;;;;;;9.67;6.67;;;;;11.18;100.00;101780.38;5032760;28;46229;-80
2023/12/27 02:22:39;;;;;;;;;13.00;8.00;;;;;11.46;100.00;101822.66;5039254;28;45285;-80
2023/12/27 02:25:05;;;;;;;;;8.00;8.00;;;;;11.36;100.00;101798.28;5028484;28;45336;-80
2023/12/27 02:27:30;;;;;;;;;11.00;5.00;;;;;11.43;100.00;101831.59;5041915;28;45237;-80
2023/12/27 02:29:56;;;;;;;;;10.33;8.00;;;;;11.10;100.00;101753.28;5058552;28;45644;-80
2023/12/27 02:32:21;;;;;;;;;9.33;8.33;;;;;11.33;100.00;101805.44;5045245;28;45300;-80
2023/12/27 02:34:47;;;;;;;;;8.00;6.00;;;;;11.02;100.00;101773.88;5021567;28;45493;-80
2023/12/27 02:37:12;;;;;;;;;8.33;5.67;;;;;11.07;100.00;101776.34;5031336;28;50538;-80
2023/12/27 02:39:37;;;;;;;;;7.00;7.00;;;;;11.05;100.00;101791.44;5049910;28;45413;-80
2023/12/27 02:42:03;;;;;;;;;8.67;7.67;;;;;11.07;100.00;101768.41;5053390;28;45461;-80
2023/12/27 02:44:29;;;;;;;;;6.67;6.00;;;;;11.19;100.00;101797.97;5042259;28;45536;-80
2023/12/27 02:46:54;;;;;;;;;10.00;8.00;;;;;11.19;100.00;101776.78;5043932;28;45400;-80
2023/12/27 02:49:20;;;;;;;;;8.00;5.67;;;;;11.22;100.00;101783.78;5042310;28;45445;-82
2023/12/27 02:51:45;;;;;;;;;10.33;8.67;;;;;11.18;100.00;101756.53;5042784;28;45430;-80
2023/12/27 02:54:11;;;;;;;;;8.00;6.00;;;;;11.16;100.00;101762.81;5044408;28;45289;-80
2023/12/27 02:56:36;;;;;;;;;9.00;8.00;;;;;10.88;100.00;101712.59;5045225;28;45369;-80
2023/12/27 02:59:02;;;;;;;;;6.67;6.67;;;;;11.19;100.00;101768.00;5042003;28;45429;-80
2023/12/27 03:01:27;;;;;;;;;8.67;5.00;;;;;10.74;100.00;101704.22;5043981;28;45447;-80
2023/12/27 03:03:52;;;;;;;;;5.00;4.67;;;;;10.98;100.00;101733.41;5043634;28;45268;-80
2023/12/27 03:06:17;;;;;;;;;8.00;5.67;;;;;10.95;100.00;101736.16;5042836;28;45473;-80
2023/12/27 03:08:43;;;;;;;;;9.33;7.67;;;;;11.04;100.00;101758.78;5043254;28;45352;-80
2023/12/27 03:11:08;;;;;;;;;8.33;5.00;;;;;11.07;100.00;101765.75;5043409;28;45267;-80
2023/12/27 03:13:34;;;;;;;;;6.00;6.00;;;;;10.97;100.00;101734.31;5049145;28;45325;-80
2023/12/27 03:16:06;;;;;;;;;7.33;7.33;;;;;10.93;100.00;101729.16;5025017;28;45703;-80
2023/12/27 03:18:33;;;;;;;;;6.67;6.33;;;;;10.98;100.00;101720.16;5024329;28;45862;-81
2023/12/27 03:20:59;;;;;;;;;5.67;4.67;;;;;10.88;100.00;101696.72;5041900;28;45281;-80
2023/12/27 03:23:24;;;;;;;;;3.33;3.00;;;;;11.23;100.00;101753.72;5041992;28;45289;-80
2023/12/27 03:25:50;;;;;;;;;6.33;5.00;;;;;10.95;100.00;101714.97;5023713;28;45270;-80
2023/12/27 03:28:15;;;;;;;;;6.33;6.33;;;;;11.27;100.00;101758.00;5042216;28;45348;-80
2023/12/27 03:30:41;;;;;;;;;11.00;7.33;;;;;10.94;100.00;101707.94;5041844;28;45508;-80
2023/12/27 03:33:06;;;;;;;;;9.00;7.33;;;;;11.09;100.00;101732.16;5042722;28;45438;-80
2023/12/27 03:35:31;;;;;;;;;4.33;4.33;;;;;10.74;100.00;101660.13;5041476;28;45476;-80
2023/12/27 03:37:57;;;;;;;;;6.33;5.33;;;;;11.21;100.00;101727.31;5042889;28;45934;-80
2023/12/27 03:40:22;;;;;;;;;6.00;5.00;;;;;10.99;100.00;101686.63;5021117;28;45317;-80
2023/12/27 03:42:47;;;;;;;;;6.00;4.33;;;;;11.03;100.00;101682.94;5043002;28;45419;-80
2023/12/27 03:45:13;;;;;;;;;5.00;5.00;;;;;11.06;100.00;101687.28;5041015;28;45324;-80
2023/12/27 03:47:38;;;;;;;;;6.00;5.00;;;;;11.23;100.00;101704.28;5041106;28;45353;-80
2023/12/27 03:50:04;;;;;;;;;10.00;6.00;;;;;11.23;100.00;101704.28;5041198;28;45421;-80
2023/12/27 03:52:29;;;;;;;;;5.33;4.00;;;;;11.05;100.00;101674.94;5040553;28;45386;-80
2023/12/27 03:54:55;;;;;;;;;4.00;4.00;;;;;11.15;100.00;101697.53;5042174;28;45413;-80
2023/12/27 03:57:20;;;;;;;;;4.67;3.67;;;;;11.24;100.00;101713.09;5024027;28;46854;-80
2023/12/27 03:59:45;;;;;;;;;4.00;4.00;;;;;11.21;100.00;101716.72;5021925;28;45421;-80
2023/12/27 04:02:11;;;;;;;;;6.67;4.00;;;;;11.40;100.00;101738.97;5042716;28;45542;-80
2023/12/27 04:04:38;;;;;;;;;5.00;4.00;;;;;11.03;100.00;101674.16;5024220;28;45310;-80
2023/12/27 04:07:04;;;;;;;;;5.67;3.33;;;;;11.24;100.00;101694.56;5021105;28;47507;-80
2023/12/27 04:09:29;;;;;;;;;4.00;4.00;;;;;11.10;100.00;101675.63;5040345;28;45427;-80
2023/12/27 04:11:55;;;;;;;;;6.33;4.00;;;;;11.40;100.00;101719.56;5023546;28;45453;-80
2023/12/27 04:14:20;;;;;;;;;5.00;5.00;;;;;11.30;100.00;101702.28;5023386;28;45317;-80
2023/12/27 04:16:45;;;;;;;;;7.00;6.33;;;;;11.05;100.00;101653.78;5044487;28;45622;-80
2023/12/27 04:19:11;;;;;;;;;9.00;5.00;;;;;11.03;100.00;101648.53;5061218;28;45277;-80
2023/12/27 04:21:36;;;;;;;;;4.00;4.00;;;;;10.84;100.00;101608.63;5061481;28;45279;-80
2023/12/27 04:24:02;;;;;;;;;5.00;3.33;;;;;10.97;100.00;101619.63;5061046;28;45416;-80
2023/12/27 04:26:27;;;;;;;;;3.67;3.67;;;;;11.20;100.00;101658.50;5058239;28;46451;-80
2023/12/27 04:28:52;;;;;;;;;9.33;4.67;;;;;11.02;100.00;101624.78;5023061;28;45472;-80
2023/12/27 04:31:18;;;;;;;;;5.33;4.00;;;;;10.86;100.00;101627.94;5040685;28;45340;-80
2023/12/27 04:33:43;;;;;;;;;5.00;5.00;;;;;11.29;100.00;101698.75;5042215;28;45349;-80
2023/12/27 04:36:09;;;;;;;;;5.00;4.00;;;;;11.07;100.00;101643.97;5022623;28;46059;-80
2023/12/27 04:38:34;;;;;;;;;5.00;5.00;;;;;10.86;100.00;101598.00;5040628;28;45388;-80
2023/12/27 04:41:06;;;;;;;;;2.67;2.67;;;;;10.88;100.00;101612.88;5040717;28;45364;-80
2023/12/27 04:43:31;;;;;;;;;6.00;3.33;;;;;11.12;100.00;101645.56;5040632;28;45455;-80
2023/12/27 04:45:56;;;;;;;;;3.33;3.33;;;;;11.24;100.00;101668.06;5018663;28;47421;-80
2023/12/27 04:48:22;;;;;;;;;5.00;4.00;;;;;10.75;100.00;101585.13;5020585;28;45327;-80
2023/12/27 04:50:47;;;;;;;;;6.00;3.67;;;;;11.03;100.00;101643.22;5020778;28;45459;-80
2023/12/27 04:53:12;;;;;;;;;9.67;5.00;;;;;10.90;100.00;101618.09;5020462;28;45652;-80
2023/12/27 04:55:38;;;;;;;;;3.67;3.33;;;;;10.78;100.00;101605.31;5035239;28;45440;-80
2023/12/27 04:58:03;;;;;;;;;6.00;3.67;;;;;10.82;100.00;101613.13;5047500;28;45269;-80
2023/12/27 05:00:28;;;;;;;;;8.00;5.67;;;;;11.15;100.00;101650.75;5014361;28;45586;-81
2023/12/27 05:02:54;;;;;;;;;5.33;4.67;;;;;10.86;100.00;101601.47;5022529;28;45511;-80
2023/12/27 05:05:19;;;;;;;;;8.67;3.67;;;;;10.69;100.00;101603.88;5039988;28;46253;-80
2023/12/27 05:07:44;;;;;;;;;4.67;4.67;;;;;10.75;100.00;101613.38;5040121;28;45454;-80
2023/12/27 05:10:10;;;;;;;;;5.00;5.00;;;;;10.73;100.00;101600.19;5041490;28;45655;-79
2023/12/27 05:12:35;;;;;;;;;4.33;3.00;;;;;11.05;100.00;101640.53;5029083;28;45554;-79
2023/12/27 05:15:00;;;;;;;;;3.33;3.00;;;;;10.67;100.00;101581.88;5022453;28;46602;-80
2023/12/27 05:17:26;;;;;;;;;5.33;3.33;;;;;10.86;100.00;101654.41;5046172;28;45459;-80
2023/12/27 05:19:51;;;;;;;;;5.00;4.00;;;;;10.71;100.00;101631.13;5041225;28;45344;-80
2023/12/27 05:22:17;;;;;;;;;4.00;4.00;;;;;10.82;100.00;101614.88;5039893;28;45510;-80
2023/12/27 05:24:43;;;;;;;;;5.00;3.00;;;;;10.73;100.00;101594.06;5039873;28;45390;-80
2023/12/27 05:27:08;;;;;;;;;3.67;3.00;;;;;10.75;100.00;101627.47;5039541;28;45340;-80
2023/12/27 05:29:34;;;;;;;;;3.67;2.33;;;;;10.57;100.00;101583.13;5041102;28;45312;-80
2023/12/27 05:32:00;;;;;;;;;3.33;3.33;;;;;11.01;100.00;101654.78;5039462;28;45301;-80
2023/12/27 05:34:27;;;;;;;;;3.67;3.00;;;;;10.74;100.00;101633.66;5039565;28;45309;-81
2023/12/27 05:36:52;;;;;;;;;7.67;5.67;;;;;10.69;100.00;101610.94;5039656;28;45326;-80
2023/12/27 05:39:17;;;;;;;;;5.67;4.67;;;;;10.78;100.00;101615.91;5031292;28;45251;-80
2023/12/27 05:41:43;;;;;;;;;5.00;5.00;;;;;10.81;100.00;101636.97;5039884;28;45483;-80
2023/12/27 05:44:08;;;;;;;;;6.33;4.33;;;;;10.96;100.00;101632.00;5039595;28;46140;-80
2023/12/27 05:46:35;;;;;;;;;5.00;3.67;;;;;10.96;100.00;101629.34;5039500;28;49639;-80
2023/12/27 05:49:00;;;;;;;;;3.67;3.00;;;;;11.08;100.00;101654.53;5039822;28;45399;-80
2023/12/27 05:51:26;;;;;;;;;5.33;5.33;;;;;10.75;100.00;101589.56;5039771;28;45461;-80
2023/12/27 05:53:51;;;;;;;;;10.00;5.00;;;;;10.60;100.00;101575.06;5039393;28;46615;-80
2023/12/27 05:56:16;;;;;;;;;5.67;3.67;;;;;10.90;100.00;101623.41;5040740;28;48849;-80
2023/12/27 05:58:42;;;;;;;;;8.00;4.67;;;;;10.72;100.00;101594.97;5039488;28;45352;-80
2023/12/27 06:01:09;;;;;;;;;3.33;3.33;;;;;10.71;100.00;101609.97;5042535;28;45517;-80
2023/12/27 06:03:34;;;;;;;;;4.00;2.67;;;;;10.71;100.00;101588.81;5041964;28;45647;-80
2023/12/27 06:06:00;;;;;;;;;6.67;5.00;;;;;10.69;100.00;101608.28;5039684;28;45352;-80
2023/12/27 06:08:26;;;;;;;;;3.00;3.00;;;;;10.93;100.00;101639.19;5040911;28;45304;-81
2023/12/27 06:10:51;;;;;;;;;6.33;3.33;;;;;10.83;100.00;101643.09;5039108;28;45248;-80
2023/12/27 06:13:18;;;;;;;;;3.33;3.33;;;;;10.79;100.00;101644.97;5037776;28;46509;-80
2023/12/27 06:15:44;;;;;;;;;5.33;4.00;;;;;10.30;100.00;101566.44;5036897;28;45463;-80
2023/12/27 06:18:09;;;;;;;;;4.33;3.00;;;;;10.87;100.00;101644.69;5039129;28;45375;-81
2023/12/27 06:20:34;;;;;;;;;5.00;5.00;;;;;10.77;100.00;101625.63;5039251;28;45339;-80
2023/12/27 06:23:00;;;;;;;;;6.67;4.67;;;;;10.34;100.00;101580.41;5037513;28;47945;-80
2023/12/27 06:25:25;;;;;;;;;7.33;4.00;;;;;10.45;100.00;101597.63;5039072;28;45293;-80
2023/12/27 06:27:51;;;;;;;;;4.67;4.67;;;;;10.49;100.00;101614.28;5039186;28;45475;-80
2023/12/27 06:30:16;;;;;;;;;4.33;4.00;;;;;10.35;100.00;101577.72;5037272;28;45510;-80
2023/12/27 06:32:41;;;;;;;;;4.67;3.33;;;;;10.69;100.00;101632.09;5038896;28;45413;-80
2023/12/27 06:35:07;;;;;;;;;5.67;4.67;;;;;10.70;100.00;101639.97;5038802;28;45273;-81
2023/12/27 06:37:32;;;;;;;;;4.00;4.00;;;;;10.48;100.00;101614.31;5039010;28;45434;-80
2023/12/27 06:39:57;;;;;;;;;5.00;5.00;;;;;10.36;100.00;101608.53;5038900;28;45348;-80
2023/12/27 06:42:23;;;;;;;;;5.67;5.67;;;;;10.16;100.00;101550.16;5047393;28;45455;-80
2023/12/27 06:44:49;;;;;;;;;5.00;5.00;;;;;10.34;100.00;101597.13;5037208;28;45258;-79
2023/12/27 06:47:14;;;;;;;;;6.67;4.00;;;;;10.42;100.00;101599.53;5039092;28;45483;-80
2023/12/27 06:49:40;;;;;;;;;5.00;5.00;;;;;10.45;100.00;101592.34;5020588;28;45599;-80
2023/12/27 06:52:05;;;;;;;;;5.33;3.67;;;;;10.72;100.00;101639.94;5038589;28;45595;-80
2023/12/27 06:54:30;;;;;;;;;4.33;4.33;;;;;10.49;100.00;101602.81;5038545;28;45285;-80
2023/12/27 06:56:56;;;;;;;;;5.00;5.00;;;;;10.40;100.00;101583.69;5038790;28;45234;-80
2023/12/27 06:59:21;;;;;;;;;6.33;6.33;;;;;10.41;100.00;101595.13;5038701;28;45418;-80
2023/12/27 07:01:47;;;;;;;;;3.00;3.00;;;;;10.59;100.00;101636.84;5038510;28;46279;-80
2023/12/27 07:04:13;;;;;;;;;8.00;7.00;;;;;10.65;100.00;101627.81;5038529;28;45306;-80
2023/12/27 07:06:38;;;;;;;;;5.67;5.67;;;;;10.51;100.00;101606.25;5038669;28;45413;-79
2023/12/27 07:09:04;;;;;;;;;8.33;6.00;;;;;10.60;100.00;101625.31;5038345;28;45468;-80
2023/12/27 07:11:30;;;;;;;;;7.00;7.00;;;;;10.23;100.00;101582.53;5045714;28;45420;-79
2023/12/27 07:13:55;;;;;;;;;7.33;4.00;;;;;10.41;100.00;101605.72;5040483;28;45445;-80
2023/12/27 07:16:20;;;;;;;;;5.67;5.00;;;;;10.00;100.00;101551.56;5058882;28;45352;-80
2023/12/27 07:18:46;;;;;;;;;6.67;5.67;;;;;10.06;100.00;101542.56;5058547;28;49687;-80
2023/12/27 07:21:12;;;;;;;;;7.33;7.33;;;;;10.14;100.00;101551.13;5058619;28;46313;-80
2023/12/27 07:23:38;;;;;;;;;4.33;4.33;;;;;10.44;100.00;101606.47;5058548;28;45301;-80
2023/12/27 07:26:04;;;;;;;;;3.00;3.00;;;;;10.34;100.00;101617.44;5041934;28;45384;-79
2023/12/27 07:28:30;;;;;;;;;8.00;6.67;;;;;10.43;100.00;101635.63;5061929;28;45289;-79
2023/12/27 07:30:56;;;;;;;;;9.67;9.67;;;;;10.38;100.00;101617.25;5043582;28;47227;-80
2023/12/27 07:33:21;;;;;;;;;7.00;5.00;;;;;10.08;100.00;101568.00;5061680;28;45410;-80
2023/12/27 07:35:48;;;;;;;;;8.67;7.00;;;;;9.81;100.00;101537.22;5044168;28;45330;-80
2023/12/27 07:38:13;;;;;;;;;4.33;4.33;;;;;10.01;100.00;101560.34;5043591;28;46114;-79
2023/12/27 07:40:40;;;;;;;;;6.67;6.67;;;;;10.29;100.00;101608.78;5061612;28;45401;-80
2023/12/27 07:43:06;;;;;;;;;7.67;7.67;;;;;10.32;100.00;101611.31;5039887;28;45388;-79
2023/12/27 07:45:33;;;;;;;;;6.33;4.00;;;;;10.29;100.00;101614.94;5041327;28;45395;-78
2023/12/27 07:47:58;;;;;;;;;10.00;7.00;;;;;10.33;100.00;101616.56;5040041;28;45589;-78
2023/12/27 07:50:24;;;;;;;;;5.67;4.00;;;;;10.24;100.00;101608.91;5041265;28;45396;-79
2023/12/27 07:52:49;;;;;;;;;8.33;6.33;;;;;10.16;100.00;101591.59;5041575;28;45244;-79
2023/12/27 07:55:15;;;;;;;;;7.00;7.00;;;;;10.14;100.00;101585.50;5040143;28;45566;-78
2023/12/27 07:57:41;;;;;;;;;10.67;5.00;;;;;10.08;100.00;101594.44;5040037;28;45391;-77
2023/12/27 08:00:08;;;;;;;;;5.33;3.67;;;;;10.25;100.00;101604.50;5041140;28;45361;-77
2023/12/27 08:02:33;;;;;;;;;5.33;5.00;;;;;10.26;100.00;101611.53;5041106;28;45589;-77
2023/12/27 08:04:59;;;;;;;;;5.00;5.00;;;;;10.17;100.00;101601.25;5040019;28;45412;-78
2023/12/27 08:07:24;;;;;;;;;10.67;7.67;;;;;10.08;100.00;101590.97;5056629;28;45364;-78
2023/12/27 08:09:50;;;;;;;;;4.00;4.00;;;;;10.26;100.00;101608.88;5040899;28;45332;-77
2023/12/27 08:12:15;;;;;;;;;6.33;4.67;;;;;10.24;100.00;101603.63;5039602;28;45285;-77
2023/12/27 08:14:40;;;;;;;;;7.33;7.33;;;;;10.00;100.00;101554.19;5040970;28;45335;-77
2023/12/27 08:17:07;;;;;;;;;8.00;5.00;;;;;10.19;100.00;101596.78;5039720;28;45419;-77
2023/12/27 08:19:32;;;;;;;;;5.00;5.00;;;;;9.93;100.00;101539.44;5041058;28;46509;-77
2023/12/27 08:21:58;;;;;;;;;8.00;6.33;;;;;10.07;100.00;101584.81;5040875;28;45285;-76
2023/12/27 08:24:23;;;;;;;;;6.33;5.00;;;;;10.14;100.00;101599.59;5041116;28;45456;-77
2023/12/27 08:26:48;;;;;;;;;10.67;7.67;;;;;10.12;100.00;101595.22;5039772;28;45445;-77
2023/12/27 08:29:14;;;;;;;;;5.00;3.33;;;;;10.14;100.00;101590.78;5039248;28;46651;-77
2023/12/27 08:31:39;;;;;;;;;9.00;6.33;;;;;10.26;100.00;101603.59;5039363;28;45282;-77
2023/12/27 08:34:05;;;;;;;;;4.67;4.67;;;;;10.26;100.00;101607.09;5040902;28;45348;-77
2023/12/27 08:36:30;;;;;;;;;4.00;4.00;;;;;10.18;100.00;101592.38;5039412;28;45304;-76
2023/12/27 08:38:55;;;;;;;;;6.67;5.00;;;;;10.31;100.00;101609.56;5040056;28;45853;-76
2023/12/27 08:41:24;;;;;;;;;8.67;8.33;;;;;10.21;100.00;101585.22;5043287;28;45316;-77
2023/12/27 08:43:50;;;;;;;;;6.00;6.00;;;;;10.29;100.00;101614.94;5045910;28;45470;-79
2023/12/27 08:46:16;;;;;;;;;4.00;4.00;;;;;10.11;100.00;101580.28;5039009;28;46070;-77
2023/12/27 08:48:41;;;;;;;;;8.33;7.00;;;;;10.25;100.00;101588.63;5040540;28;45597;-78
2023/12/27 08:51:09;;;;;;;;;5.00;5.00;;;;;10.28;100.00;101596.47;5040725;28;45364;-78
2023/12/27 08:53:34;;;;;;;;;7.00;7.00;;;;;10.36;100.00;101599.72;5041004;28;45304;-77
2023/12/27 08:55:59;;;;;;;;;4.33;3.33;;;;;10.35;100.00;101598.00;5039609;28;45312;-78
2023/12/27 08:58:25;;;;;;;;;8.00;3.00;;;;;9.96;100.00;101536.72;5041471;28;46739;-78
2023/12/27 09:00:51;;;;;;;;;4.00;3.00;;;;;10.17;100.00;101574.81;5040322;28;45293;-78
2023/12/27 09:03:16;;;;;;;;;5.00;5.00;;;;;9.97;100.00;101558.72;5040418;28;45296;-77
2023/12/27 09:05:41;;;;;;;;;4.00;4.00;;;;;9.82;100.00;101525.72;5040510;28;45285;-78
2023/12/27 09:08:07;;;;;;;;;9.00;5.00;;;;;10.22;100.00;101586.09;5055464;28;47291;-78
2023/12/27 09:10:33;;;;;;;;;5.00;3.00;;;;;10.30;100.00;101599.94;5040465;28;45467;-75
2023/12/27 09:12:59;;;;;;;;;5.00;4.00;;;;;10.15;100.00;101555.50;5059607;28;45377;-76
2023/12/27 09:15:24;;;;;;;;;2.67;2.67;;;;;10.11;100.00;101554.69;5059709;28;45340;-76
2023/12/27 09:17:49;;;;;;;;;3.33;3.33;;;;;10.13;100.00;101558.16;5060148;28;45387;-77
2023/12/27 09:20:15;;;;;;;;;4.00;4.00;;;;;10.23;100.00;101570.19;5042038;28;45463;-77
2023/12/27 09:22:40;;;;;;;;;4.00;4.00;;;;;10.40;100.00;101610.13;5029040;28;45270;-77
2023/12/27 09:25:06;;;;;;;;;5.00;5.00;;;;;10.33;100.00;101578.69;5039092;28;55633;-77
2023/12/27 09:27:31;;;;;;;;;6.33;3.33;;;;;10.43;100.00;101590.69;5021338;28;47977;-76
2023/12/27 09:29:56;;;;;;;;;4.33;4.00;;;;;10.33;100.00;101552.25;5040298;28;45487;-77
2023/12/27 09:32:22;;;;;;;;;5.00;4.00;;;;;10.43;100.00;101559.81;5039519;28;45397;-76
2023/12/27 09:34:49;;;;;;;;;8.00;5.33;;;;;10.41;100.00;101561.63;5038305;28;45488;-75
2023/12/27 09:37:15;;;;;;;;;6.33;5.67;;;;;10.64;100.00;101586.41;5039254;28;46555;-74
2023/12/27 09:39:40;;;;;;;;;10.00;4.67;;;;;10.61;100.00;101579.47;5039303;28;45427;-75
2023/12/27 09:42:05;;;;;;;;;4.00;4.00;;;;;10.68;100.00;101588.03;5038770;28;45436;-76
2023/12/27 09:44:39;;;;;;;;;5.00;3.00;;;;;10.69;100.00;101587.13;5017192;28;45574;-78
2023/12/27 09:47:06;;;;;;;;;5.33;4.00;;;;;10.55;100.00;101555.00;5023683;28;46469;-76
2023/12/27 09:49:33;;;;;;;;;4.67;4.67;;;;;10.80;100.00;101596.41;5030839;28;46013;-76
2023/12/27 09:52:01;;;;;;;;;3.33;3.33;;;;;10.77;100.00;101572.69;5039056;28;45480;-76
2023/12/27 09:54:26;;;;;;;;;5.67;3.00;;;;;10.86;100.00;101579.47;5041024;28;45316;-76
2023/12/27 09:56:55;;;;;;;;;3.00;3.00;;;;;10.67;100.00;101544.84;5022047;28;48293;-76
2023/12/27 09:59:35;;;;;;;;;3.00;3.00;;;;;10.74;100.00;101548.13;5033498;28;45383;-76
2023/12/27 10:02:02;;;;;;;;;5.00;4.67;;;;;10.74;100.00;101546.34;5038508;28;45444;-78
2023/12/27 10:05:18;;;;;;;;;6.33;4.00;;;;;10.96;100.00;101563.19;5040370;28;45648;-80
2023/12/27 10:07:44;;;;;;;;;4.00;4.00;;;;;10.85;100.00;101551.28;4983383;28;45562;-76
2023/12/27 10:10:10;;;;;;;;;5.33;4.33;;;;;10.97;100.00;101556.09;5020819;28;45458;-76
2023/12/27 10:12:36;;;;;;;;;5.00;5.00;;;;;11.07;100.00;101561.91;5050457;28;45445;-78
2023/12/27 10:15:02;;;;;;;;;8.00;6.33;;;;;11.08;100.00;101553.06;5040912;28;45383;-78
2023/12/27 10:17:27;;;;;;;;;5.33;4.00;;;;;11.08;100.00;101540.69;5048553;28;45511;-78
2023/12/27 10:19:53;;;;;;;;;14.67;7.00;;;;;11.16;100.00;101538.63;5027605;28;45390;-78
2023/12/27 10:22:19;;;;;;;;;4.00;4.00;;;;;11.05;100.00;101518.78;5041899;28;45339;-78
2023/12/27 10:24:44;;;;;;;;;6.33;4.00;;;;;11.06;100.00;101504.63;5040988;28;45368;-78
2023/12/27 10:27:12;;;;;;;;;7.33;5.67;;;;;11.25;100.00;101532.13;5035026;28;45488;-76
2023/12/27 10:29:38;;;;;;;;;3.00;3.00;;;;;11.22;100.00;101521.66;5030254;28;45446;-77
2023/12/27 10:32:07;;;;;;;;;3.67;3.67;;;;;11.24;100.00;101523.31;5039212;28;45363;-77
2023/12/27 10:34:32;;;;;;;;;5.00;5.00;;;;;11.32;100.00;101521.22;5038803;28;45302;-76
2023/12/27 10:36:59;;;;;;;;;5.00;4.33;;;;;11.20;100.00;101497.00;5039646;28;46220;-78
2023/12/27 10:39:25;;;;;;;;;5.67;5.00;;;;;11.24;100.00;101495.97;5038656;28;45381;-77
2023/12/27 10:41:58;;;;;;;;;8.00;5.00;;;;;11.33;100.00;101498.25;5021173;28;45431;-76
2023/12/27 10:44:42;;;;;;;;;5.33;4.00;;;;;11.29;100.00;101481.63;5019073;28;45694;-80
2023/12/27 10:47:25;;;;;;;;;4.00;4.00;;;;;10.84;100.00;101396.94;5034995;28;45485;-81
2023/12/27 10:50:11;;;;;;;;;5.67;3.67;;;;;11.30;100.00;101448.06;5020544;28;45263;-81
2023/12/27 10:52:41;;;;;;;;;2.67;2.67;;;;;11.45;100.00;101472.13;5019521;28;45540;-80
2023/12/27 10:55:21;;;;;;;;;6.00;5.00;;;;;11.37;100.00;101429.22;5000533;28;45570;-81
2023/12/27 10:57:54;;;;;;;;;6.67;6.00;;;;;11.16;100.00;101379.75;5024760;28;45851;-79
2023/12/27 11:00:21;;;;;;;;;9.67;5.00;;;;;11.70;100.00;101461.47;5038570;28;45539;-76
2023/12/27 11:02:50;;;;;;;;;8.33;5.00;;;;;11.73;100.00;101453.38;5041223;28;45286;-78
2023/12/27 11:05:19;;;;;;;;;3.33;3.33;;;;;11.79;100.00;101461.06;5025485;28;45468;-77
2023/12/27 11:07:50;;;;;;;;;6.00;4.00;;;;;10.95;98.99;101295.94;5016482;28;46936;-79
2023/12/27 11:10:29;;;;;;;;;2.33;2.33;;;;;11.58;99.40;101385.09;5022020;28;45469;-79
2023/12/27 11:13:10;;;;;;;;;3.33;3.33;;;;;11.88;97.07;101444.78;5062066;28;45411;-79